sensor_id;sensor_type;location;lat;lon;timestamp;temperature;humidity
26743;DHT22;14341;51.256;22.478;2022-10-31T00:02:34;7.80;99.90
26743;DHT22;14341;51.256;22.478;2022-10-31T00:05:42;7.80;99.90
26743;DHT22;14341;51.256;22.478;2022-10-31T00:08:45;7.80;99.90
26743;DHT22;14341;51.256;22.478;2022-10-31T00:11:48;7.80;99.90
26743;DHT22;14341;51.256;22.478;2022-10-31T00:14:52;7.80;99.90
26743;DHT22;14341;51.256;22.478;2022-10-31T00:17:55;7.80;99.90
26743;DHT22;14341;51.256;22.478;2022-10-31T00:21:01;7.80;99.90
26743;DHT22;14341;51.256;22.478;2022-10-31T00:24:05;7.80;99.90
26743;DHT22;14341;51.256;22.478;2022-10-31T00:27:09;7.70;99.90
26743;DHT22;14341;51.256;22.478;2022-10-31T00:30:12;7.60;99.90
26743;DHT22;14341;51.256;22.478;2022-10-31T00:33:16;7.50;99.90
26743;DHT22;14341;51.256;22.478;2022-10-31T00:36:21;7.50;99.90
26743;DHT22;14341;51.256;22.478;2022-10-31T00:39:24;7.60;99.90
26743;DHT22;14341;51.256;22.478;2022-10-31T00:42:27;7.50;99.90
26743;DHT22;14341;51.256;22.478;2022-10-31T00:45:32;7.40;99.90
26743;DHT22;14341;51.256;22.478;2022-10-31T00:48:35;7.40;99.90
26743;DHT22;14341;51.256;22.478;2022-10-31T00:51:40;7.30;99.90
26743;DHT22;14341;51.256;22.478;2022-10-31T00:54:44;7.20;99.90
26743;DHT22;14341;51.256;22.478;2022-10-31T00:57:47;7.10;99.90
26743;DHT22;14341;51.256;22.478;2022-10-31T01:00:51;7.00;99.90
26743;DHT22;14341;51.256;22.478;2022-10-31T01:03:57;6.80;99.90
26743;DHT22;14341;51.256;22.478;2022-10-31T01:07:02;6.80;99.90
26743;DHT22;14341;51.256;22.478;2022-10-31T01:10:06;6.70;99.90
26743;DHT22;14341;51.256;22.478;2022-10-31T01:13:09;6.70;99.90
26743;DHT22;14341;51.256;22.478;2022-10-31T01:16:14;6.70;99.90
26743;DHT22;14341;51.256;22.478;2022-10-31T01:19:18;6.60;99.90
26743;DHT22;14341;51.256;22.478;2022-10-31T01:22:23;6.60;99.90
26743;DHT22;14341;51.256;22.478;2022-10-31T01:25:26;6.60;99.90
26743;DHT22;14341;51.256;22.478;2022-10-31T01:28:29;6.60;99.90
26743;DHT22;14341;51.256;22.478;2022-10-31T01:31:35;6.50;99.90
26743;DHT22;14341;51.256;22.478;2022-10-31T01:34:39;6.50;99.90
26743;DHT22;14341;51.256;22.478;2022-10-31T01:37:43;6.60;99.90
26743;DHT22;14341;51.256;22.478;2022-10-31T01:40:47;6.60;99.90
26743;DHT22;14341;51.256;22.478;2022-10-31T01:43:52;6.50;99.90
26743;DHT22;14341;51.256;22.478;2022-10-31T01:46:58;6.50;99.90
26743;DHT22;14341;51.256;22.478;2022-10-31T01:50:06;6.50;99.90
26743;DHT22;14341;51.256;22.478;2022-10-31T01:53:14;6.50;99.90
26743;DHT22;14341;51.256;22.478;2022-10-31T01:56:18;6.40;99.90
26743;DHT22;14341;51.256;22.478;2022-10-31T01:59:23;6.40;99.90
26743;DHT22;14341;51.256;22.478;2022-10-31T02:02:29;6.30;99.90
26743;DHT22;14341;51.256;22.478;2022-10-31T02:05:33;6.30;99.90
26743;DHT22;14341;51.256;22.478;2022-10-31T02:08:39;6.20;99.90
26743;DHT22;14341;51.256;22.478;2022-10-31T02:11:44;6.20;99.90
26743;DHT22;14341;51.256;22.478;2022-10-31T02:14:47;6.10;99.90
26743;DHT22;14341;51.256;22.478;2022-10-31T02:17:51;6.10;99.90
26743;DHT22;14341;51.256;22.478;2022-10-31T02:21:01;6.00;99.90
26743;DHT22;14341;51.256;22.478;2022-10-31T02:24:38;5.90;99.90
26743;DHT22;14341;51.256;22.478;2022-10-31T02:31:32;5.90;99.90
26743;DHT22;14341;51.256;22.478;2022-10-31T02:34:40;5.90;99.90
26743;DHT22;14341;51.256;22.478;2022-10-31T02:37:50;5.90;99.90
26743;DHT22;14341;51.256;22.478;2022-10-31T02:40:59;5.90;99.90
26743;DHT22;14341;51.256;22.478;2022-10-31T02:44:11;5.90;99.90
26743;DHT22;14341;51.256;22.478;2022-10-31T02:47:22;5.90;99.90
26743;DHT22;14341;51.256;22.478;2022-10-31T02:50:28;5.80;99.90
26743;DHT22;14341;51.256;22.478;2022-10-31T02:53:34;5.70;99.90
26743;DHT22;14341;51.256;22.478;2022-10-31T02:56:37;5.70;99.90
26743;DHT22;14341;51.256;22.478;2022-10-31T02:59:45;5.70;99.90
26743;DHT22;14341;51.256;22.478;2022-10-31T03:02:58;5.70;99.90
26743;DHT22;14341;51.256;22.478;2022-10-31T03:06:09;5.70;99.90
26743;DHT22;14341;51.256;22.478;2022-10-31T03:09:22;5.70;99.90
26743;DHT22;14341;51.256;22.478;2022-10-31T03:12:36;5.60;99.90
26743;DHT22;14341;51.256;22.478;2022-10-31T03:15:50;5.50;99.90
26743;DHT22;14341;51.256;22.478;2022-10-31T03:18:57;5.60;99.90
26743;DHT22;14341;51.256;22.478;2022-10-31T03:22:06;5.60;99.90
26743;DHT22;14341;51.256;22.478;2022-10-31T03:25:12;5.60;99.90
26743;DHT22;14341;51.256;22.478;2022-10-31T03:28:20;5.60;99.90
26743;DHT22;14341;51.256;22.478;2022-10-31T03:31:30;5.60;99.90
26743;DHT22;14341;51.256;22.478;2022-10-31T03:34:37;5.50;99.90
26743;DHT22;14341;51.256;22.478;2022-10-31T03:37:42;5.50;99.90
26743;DHT22;14341;51.256;22.478;2022-10-31T03:40:51;5.50;99.90
26743;DHT22;14341;51.256;22.478;2022-10-31T03:43:59;5.50;99.90
26743;DHT22;14341;51.256;22.478;2022-10-31T03:47:04;5.40;99.90
26743;DHT22;14341;51.256;22.478;2022-10-31T03:50:11;5.40;99.90
26743;DHT22;14341;51.256;22.478;2022-10-31T03:53:18;5.40;99.90
26743;DHT22;14341;51.256;22.478;2022-10-31T03:56:29;5.30;99.90
26743;DHT22;14341;51.256;22.478;2022-10-31T03:59:36;5.20;99.90
26743;DHT22;14341;51.256;22.478;2022-10-31T04:02:46;5.20;99.90
26743;DHT22;14341;51.256;22.478;2022-10-31T04:05:54;5.10;99.90
26743;DHT22;14341;51.256;22.478;2022-10-31T04:09:00;5.10;99.90
26743;DHT22;14341;51.256;22.478;2022-10-31T04:12:06;5.00;99.90
26743;DHT22;14341;51.256;22.478;2022-10-31T04:15:28;5.00;99.90
26743;DHT22;14341;51.256;22.478;2022-10-31T04:18:33;4.90;99.90
26743;DHT22;14341;51.256;22.478;2022-10-31T04:21:39;5.00;99.90
26743;DHT22;14341;51.256;22.478;2022-10-31T04:24:45;4.90;99.90
26743;DHT22;14341;51.256;22.478;2022-10-31T04:27:50;5.00;99.90
26743;DHT22;14341;51.256;22.478;2022-10-31T04:30:54;5.10;99.90
26743;DHT22;14341;51.256;22.478;2022-10-31T04:33:58;5.10;99.90
26743;DHT22;14341;51.256;22.478;2022-10-31T04:37:05;5.10;99.90
26743;DHT22;14341;51.256;22.478;2022-10-31T04:40:09;5.20;99.90
26743;DHT22;14341;51.256;22.478;2022-10-31T04:43:12;5.20;99.90
26743;DHT22;14341;51.256;22.478;2022-10-31T04:46:18;5.10;99.90
26743;DHT22;14341;51.256;22.478;2022-10-31T04:49:22;5.00;99.90
26743;DHT22;14341;51.256;22.478;2022-10-31T04:52:26;5.00;99.90
26743;DHT22;14341;51.256;22.478;2022-10-31T04:55:30;5.00;99.90
26743;DHT22;14341;51.256;22.478;2022-10-31T04:58:54;5.00;99.90
26743;DHT22;14341;51.256;22.478;2022-10-31T05:01:59;4.90;99.90
26743;DHT22;14341;51.256;22.478;2022-10-31T05:05:18;5.00;99.90
26743;DHT22;14341;51.256;22.478;2022-10-31T05:08:24;5.00;99.90
26743;DHT22;14341;51.256;22.478;2022-10-31T05:11:28;5.00;99.90
26743;DHT22;14341;51.256;22.478;2022-10-31T05:14:41;5.00;99.90
26743;DHT22;14341;51.256;22.478;2022-10-31T05:18:08;4.90;99.90
26743;DHT22;14341;51.256;22.478;2022-10-31T05:21:50;4.90;99.90
26743;DHT22;14341;51.256;22.478;2022-10-31T05:24:55;4.90;99.90
26743;DHT22;14341;51.256;22.478;2022-10-31T05:27:58;4.90;99.90
26743;DHT22;14341;51.256;22.478;2022-10-31T05:31:02;4.90;99.90
26743;DHT22;14341;51.256;22.478;2022-10-31T05:34:06;4.90;99.90
26743;DHT22;14341;51.256;22.478;2022-10-31T05:37:30;4.80;99.90
26743;DHT22;14341;51.256;22.478;2022-10-31T05:40:36;4.80;99.90
26743;DHT22;14341;51.256;22.478;2022-10-31T05:43:40;4.80;99.90
26743;DHT22;14341;51.256;22.478;2022-10-31T05:46:46;4.90;99.90
26743;DHT22;14341;51.256;22.478;2022-10-31T05:50:09;4.90;99.90
26743;DHT22;14341;51.256;22.478;2022-10-31T05:53:20;4.90;99.90
26743;DHT22;14341;51.256;22.478;2022-10-31T05:56:25;5.00;99.90
26743;DHT22;14341;51.256;22.478;2022-10-31T05:59:29;5.00;99.90
26743;DHT22;14341;51.256;22.478;2022-10-31T06:02:32;5.10;99.90
26743;DHT22;14341;51.256;22.478;2022-10-31T06:05:55;5.10;99.90
26743;DHT22;14341;51.256;22.478;2022-10-31T06:09:03;5.20;99.90
26743;DHT22;14341;51.256;22.478;2022-10-31T06:12:10;5.20;99.90
26743;DHT22;14341;51.256;22.478;2022-10-31T06:15:32;5.30;99.90
26743;DHT22;14341;51.256;22.478;2022-10-31T06:18:35;5.40;99.90
26743;DHT22;14341;51.256;22.478;2022-10-31T06:21:38;5.50;99.90
26743;DHT22;14341;51.256;22.478;2022-10-31T06:24:42;5.60;99.90
26743;DHT22;14341;51.256;22.478;2022-10-31T06:28:05;5.70;99.90
26743;DHT22;14341;51.256;22.478;2022-10-31T06:31:20;5.90;99.90
26743;DHT22;14341;51.256;22.478;2022-10-31T06:34:23;6.00;99.90
26743;DHT22;14341;51.256;22.478;2022-10-31T06:37:27;6.10;99.90
26743;DHT22;14341;51.256;22.478;2022-10-31T06:40:37;6.30;99.90
26743;DHT22;14341;51.256;22.478;2022-10-31T06:43:52;6.40;99.90
26743;DHT22;14341;51.256;22.478;2022-10-31T06:47:24;6.50;99.90
26743;DHT22;14341;51.256;22.478;2022-10-31T06:50:37;6.60;99.90
26743;DHT22;14341;51.256;22.478;2022-10-31T06:53:42;6.80;99.90
26743;DHT22;14341;51.256;22.478;2022-10-31T06:56:47;7.10;99.90
26743;DHT22;14341;51.256;22.478;2022-10-31T06:59:52;7.20;99.90
26743;DHT22;14341;51.256;22.478;2022-10-31T07:03:09;7.60;99.90
26743;DHT22;14341;51.256;22.478;2022-10-31T07:06:13;7.70;99.90
26743;DHT22;14341;51.256;22.478;2022-10-31T07:09:16;7.80;99.90
26743;DHT22;14341;51.256;22.478;2022-10-31T07:12:20;8.00;99.90
26743;DHT22;14341;51.256;22.478;2022-10-31T07:15:32;8.20;99.90
26743;DHT22;14341;51.256;22.478;2022-10-31T07:18:36;8.30;99.90
26743;DHT22;14341;51.256;22.478;2022-10-31T07:21:39;8.50;99.90
26743;DHT22;14341;51.256;22.478;2022-10-31T07:24:44;8.60;99.90
26743;DHT22;14341;51.256;22.478;2022-10-31T07:27:49;8.80;99.90
26743;DHT22;14341;51.256;22.478;2022-10-31T07:30:56;8.80;99.90
26743;DHT22;14341;51.256;22.478;2022-10-31T07:34:00;9.10;99.90
26743;DHT22;14341;51.256;22.478;2022-10-31T07:37:09;9.20;99.90
26743;DHT22;14341;51.256;22.478;2022-10-31T07:40:14;9.40;99.90
26743;DHT22;14341;51.256;22.478;2022-10-31T07:43:18;9.50;99.90
26743;DHT22;14341;51.256;22.478;2022-10-31T07:46:41;9.60;99.90
26743;DHT22;14341;51.256;22.478;2022-10-31T07:49:57;9.70;99.90
26743;DHT22;14341;51.256;22.478;2022-10-31T07:53:35;9.90;99.90
26743;DHT22;14341;51.256;22.478;2022-10-31T07:56:48;10.10;99.90
26743;DHT22;14341;51.256;22.478;2022-10-31T07:59:52;10.20;99.90
26743;DHT22;14341;51.256;22.478;2022-10-31T08:02:59;10.30;99.90
26743;DHT22;14341;51.256;22.478;2022-10-31T08:06:32;10.30;99.90
26743;DHT22;14341;51.256;22.478;2022-10-31T08:10:01;10.40;99.90
26743;DHT22;14341;51.256;22.478;2022-10-31T08:13:08;10.50;99.90
26743;DHT22;14341;51.256;22.478;2022-10-31T08:16:14;10.70;99.90
26743;DHT22;14341;51.256;22.478;2022-10-31T08:19:27;10.80;99.90
26743;DHT22;14341;51.256;22.478;2022-10-31T08:22:31;10.90;99.90
26743;DHT22;14341;51.256;22.478;2022-10-31T08:25:36;11.10;99.90
26743;DHT22;14341;51.256;22.478;2022-10-31T08:28:40;11.20;99.90
26743;DHT22;14341;51.256;22.478;2022-10-31T08:31:44;11.30;99.90
26743;DHT22;14341;51.256;22.478;2022-10-31T08:35:08;11.40;99.90
26743;DHT22;14341;51.256;22.478;2022-10-31T08:38:30;11.60;99.90
26743;DHT22;14341;51.256;22.478;2022-10-31T08:41:33;11.80;99.90
26743;DHT22;14341;51.256;22.478;2022-10-31T08:44:38;12.10;99.90
26743;DHT22;14341;51.256;22.478;2022-10-31T08:47:41;12.30;99.90
26743;DHT22;14341;51.256;22.478;2022-10-31T08:50:46;12.40;99.90
26743;DHT22;14341;51.256;22.478;2022-10-31T08:53:50;12.60;99.90
26743;DHT22;14341;51.256;22.478;2022-10-31T08:57:13;12.70;99.90
26743;DHT22;14341;51.256;22.478;2022-10-31T09:00:19;12.90;99.90
26743;DHT22;14341;51.256;22.478;2022-10-31T09:03:45;13.00;99.90
26743;DHT22;14341;51.256;22.478;2022-10-31T09:06:50;13.20;99.90
26743;DHT22;14341;51.256;22.478;2022-10-31T09:10:14;13.30;99.90
26743;DHT22;14341;51.256;22.478;2022-10-31T09:13:20;13.50;99.90
26743;DHT22;14341;51.256;22.478;2022-10-31T09:17:00;13.60;99.90
26743;DHT22;14341;51.256;22.478;2022-10-31T09:20:20;13.60;99.90
26743;DHT22;14341;51.256;22.478;2022-10-31T09:23:26;13.80;99.90
26743;DHT22;14341;51.256;22.478;2022-10-31T09:26:30;13.90;99.90
26743;DHT22;14341;51.256;22.478;2022-10-31T09:29:47;14.00;99.90
26743;DHT22;14341;51.256;22.478;2022-10-31T09:32:56;14.00;99.90
26743;DHT22;14341;51.256;22.478;2022-10-31T09:36:00;13.90;99.90
26743;DHT22;14341;51.256;22.478;2022-10-31T09:39:06;14.00;99.90
26743;DHT22;14341;51.256;22.478;2022-10-31T09:42:36;13.90;99.90
26743;DHT22;14341;51.256;22.478;2022-10-31T09:45:56;13.90;99.90
26743;DHT22;14341;51.256;22.478;2022-10-31T09:49:30;14.10;99.90
26743;DHT22;14341;51.256;22.478;2022-10-31T09:52:37;14.30;99.90
26743;DHT22;14341;51.256;22.478;2022-10-31T09:55:46;14.50;99.90
26743;DHT22;14341;51.256;22.478;2022-10-31T09:58:51;14.40;99.90
26743;DHT22;14341;51.256;22.478;2022-10-31T10:01:58;14.40;99.90
26743;DHT22;14341;51.256;22.478;2022-10-31T10:05:09;14.50;99.90
26743;DHT22;14341;51.256;22.478;2022-10-31T10:08:18;14.50;99.90
26743;DHT22;14341;51.256;22.478;2022-10-31T10:11:40;14.40;99.90
26743;DHT22;14341;51.256;22.478;2022-10-31T10:15:04;14.50;99.90
26743;DHT22;14341;51.256;22.478;2022-10-31T10:18:21;14.80;99.90
26743;DHT22;14341;51.256;22.478;2022-10-31T10:21:35;15.10;99.90
26743;DHT22;14341;51.256;22.478;2022-10-31T10:24:59;15.50;99.90
26743;DHT22;14341;51.256;22.478;2022-10-31T10:28:13;15.50;99.90
26743;DHT22;14341;51.256;22.478;2022-10-31T10:31:23;16.00;99.90
26743;DHT22;14341;51.256;22.478;2022-10-31T10:34:31;16.20;99.90
26743;DHT22;14341;51.256;22.478;2022-10-31T10:37:38;16.40;99.90
26743;DHT22;14341;51.256;22.478;2022-10-31T10:40:42;17.00;99.90
26743;DHT22;14341;51.256;22.478;2022-10-31T10:43:50;17.00;98.50
26743;DHT22;14341;51.256;22.478;2022-10-31T10:46:58;17.20;94.40
26743;DHT22;14341;51.256;22.478;2022-10-31T10:50:22;17.30;99.90
26743;DHT22;14341;51.256;22.478;2022-10-31T10:53:40;17.80;87.90
26743;DHT22;14341;51.256;22.478;2022-10-31T10:57:20;18.10;29.60
26743;DHT22;14341;51.256;22.478;2022-10-31T11:00:29;18.00;17.60
26743;DHT22;14341;51.256;22.478;2022-10-31T11:03:35;18.00;16.70
26743;DHT22;14341;51.256;22.478;2022-10-31T11:06:39;17.70;41.40
26743;DHT22;14341;51.256;22.478;2022-10-31T11:09:42;18.40;47.70
26743;DHT22;14341;51.256;22.478;2022-10-31T11:13:00;18.80;16.70
26743;DHT22;14341;51.256;22.478;2022-10-31T11:16:08;19.40;1.00
26743;DHT22;14341;51.256;22.478;2022-10-31T11:19:16;19.30;1.00
26743;DHT22;14341;51.256;22.478;2022-10-31T11:22:20;19.00;1.00
26743;DHT22;14341;51.256;22.478;2022-10-31T11:25:25;18.40;4.70
26743;DHT22;14341;51.256;22.478;2022-10-31T11:28:32;19.00;1.00
26743;DHT22;14341;51.256;22.478;2022-10-31T11:31:38;19.40;1.00
26743;DHT22;14341;51.256;22.478;2022-10-31T11:34:43;19.20;1.00
26743;DHT22;14341;51.256;22.478;2022-10-31T11:37:50;18.90;1.00
26743;DHT22;14341;51.256;22.478;2022-10-31T11:40:58;18.80;1.00
26743;DHT22;14341;51.256;22.478;2022-10-31T11:44:05;18.50;1.00
26743;DHT22;14341;51.256;22.478;2022-10-31T11:47:17;18.30;1.00
26743;DHT22;14341;51.256;22.478;2022-10-31T11:50:24;18.30;1.00
26743;DHT22;14341;51.256;22.478;2022-10-31T11:53:30;17.90;1.00
26743;DHT22;14341;51.256;22.478;2022-10-31T11:56:38;17.60;50.50
26743;DHT22;14341;51.256;22.478;2022-10-31T11:59:51;17.60;55.00
26743;DHT22;14341;51.256;22.478;2022-10-31T12:03:12;17.40;65.90
26743;DHT22;14341;51.256;22.478;2022-10-31T12:06:21;17.00;76.60
26743;DHT22;14341;51.256;22.478;2022-10-31T12:09:27;17.00;75.30
26743;DHT22;14341;51.256;22.478;2022-10-31T12:12:58;16.90;86.20
26743;DHT22;14341;51.256;22.478;2022-10-31T12:16:12;16.40;95.10
26743;DHT22;14341;51.256;22.478;2022-10-31T12:19:24;16.10;99.20
26743;DHT22;14341;51.256;22.478;2022-10-31T12:22:37;16.20;99.90
26743;DHT22;14341;51.256;22.478;2022-10-31T12:25:47;16.30;99.90
26743;DHT22;14341;51.256;22.478;2022-10-31T12:29:07;16.10;99.90
26743;DHT22;14341;51.256;22.478;2022-10-31T12:32:25;15.90;99.90
26743;DHT22;14341;51.256;22.478;2022-10-31T12:35:45;15.70;99.90
26743;DHT22;14341;51.256;22.478;2022-10-31T12:39:04;15.50;99.90
26743;DHT22;14341;51.256;22.478;2022-10-31T12:42:16;15.30;99.90
26743;DHT22;14341;51.256;22.478;2022-10-31T12:45:36;15.20;99.90
26743;DHT22;14341;51.256;22.478;2022-10-31T12:49:07;15.20;99.90
26743;DHT22;14341;51.256;22.478;2022-10-31T12:52:38;15.10;99.90
26743;DHT22;14341;51.256;22.478;2022-10-31T12:55:52;15.20;99.90
26743;DHT22;14341;51.256;22.478;2022-10-31T12:59:02;15.20;99.90
26743;DHT22;14341;51.256;22.478;2022-10-31T13:02:15;15.10;99.90
26743;DHT22;14341;51.256;22.478;2022-10-31T13:05:25;15.40;99.90
26743;DHT22;14341;51.256;22.478;2022-10-31T13:08:36;15.40;99.90
26743;DHT22;14341;51.256;22.478;2022-10-31T13:11:44;15.40;99.90
26743;DHT22;14341;51.256;22.478;2022-10-31T13:14:50;15.50;99.90
26743;DHT22;14341;51.256;22.478;2022-10-31T13:17:57;15.70;99.90
26743;DHT22;14341;51.256;22.478;2022-10-31T13:21:08;15.80;99.90
26743;DHT22;14341;51.256;22.478;2022-10-31T13:24:14;16.30;99.90
26743;DHT22;14341;51.256;22.478;2022-10-31T13:27:23;16.30;99.90
26743;DHT22;14341;51.256;22.478;2022-10-31T13:30:28;16.30;99.90
26743;DHT22;14341;51.256;22.478;2022-10-31T13:33:39;16.30;99.90
26743;DHT22;14341;51.256;22.478;2022-10-31T13:36:49;15.90;99.90
26743;DHT22;14341;51.256;22.478;2022-10-31T13:40:09;15.70;99.90
26743;DHT22;14341;51.256;22.478;2022-10-31T13:43:27;15.80;99.90
26743;DHT22;14341;51.256;22.478;2022-10-31T13:46:36;15.80;99.90
26743;DHT22;14341;51.256;22.478;2022-10-31T13:49:40;15.50;99.90
26743;DHT22;14341;51.256;22.478;2022-10-31T13:52:43;15.30;99.90
26743;DHT22;14341;51.256;22.478;2022-10-31T13:55:50;15.20;99.90
26743;DHT22;14341;51.256;22.478;2022-10-31T13:59:17;15.30;99.90
26743;DHT22;14341;51.256;22.478;2022-10-31T14:02:26;15.30;99.90
26743;DHT22;14341;51.256;22.478;2022-10-31T14:05:31;15.20;99.90
26743;DHT22;14341;51.256;22.478;2022-10-31T14:08:39;15.00;99.90
26743;DHT22;14341;51.256;22.478;2022-10-31T14:11:47;14.80;99.90
26743;DHT22;14341;51.256;22.478;2022-10-31T14:14:54;14.60;99.90
26743;DHT22;14341;51.256;22.478;2022-10-31T14:18:00;14.50;99.90
26743;DHT22;14341;51.256;22.478;2022-10-31T14:21:15;14.40;99.90
26743;DHT22;14341;51.256;22.478;2022-10-31T14:24:33;14.20;99.90
26743;DHT22;14341;51.256;22.478;2022-10-31T14:27:46;14.10;99.90
26743;DHT22;14341;51.256;22.478;2022-10-31T14:30:54;14.00;99.90
26743;DHT22;14341;51.256;22.478;2022-10-31T14:33:58;13.90;99.90
26743;DHT22;14341;51.256;22.478;2022-10-31T14:40:41;13.60;99.90
26743;DHT22;14341;51.256;22.478;2022-10-31T14:44:17;13.40;99.90
26743;DHT22;14341;51.256;22.478;2022-10-31T14:47:35;13.20;99.90
26743;DHT22;14341;51.256;22.478;2022-10-31T14:50:47;13.00;99.90
26743;DHT22;14341;51.256;22.478;2022-10-31T14:53:53;12.80;99.90
26743;DHT22;14341;51.256;22.478;2022-10-31T14:57:01;12.70;99.90
26743;DHT22;14341;51.256;22.478;2022-10-31T15:00:12;12.50;99.90
26743;DHT22;14341;51.256;22.478;2022-10-31T15:03:25;12.30;99.90
26743;DHT22;14341;51.256;22.478;2022-10-31T15:06:35;12.20;99.90
26743;DHT22;14341;51.256;22.478;2022-10-31T15:09:42;12.00;99.90
26743;DHT22;14341;51.256;22.478;2022-10-31T15:12:46;11.80;99.90
26743;DHT22;14341;51.256;22.478;2022-10-31T15:15:53;11.70;99.90
26743;DHT22;14341;51.256;22.478;2022-10-31T15:18:59;11.60;99.90
26743;DHT22;14341;51.256;22.478;2022-10-31T15:22:03;11.40;99.90
26743;DHT22;14341;51.256;22.478;2022-10-31T15:25:16;11.20;99.90
26743;DHT22;14341;51.256;22.478;2022-10-31T15:28:23;11.10;99.90
26743;DHT22;14341;51.256;22.478;2022-10-31T15:31:29;11.10;99.90
26743;DHT22;14341;51.256;22.478;2022-10-31T15:34:37;11.00;99.90
26743;DHT22;14341;51.256;22.478;2022-10-31T15:37:41;10.90;99.90
26743;DHT22;14341;51.256;22.478;2022-10-31T15:40:52;10.80;99.90
26743;DHT22;14341;51.256;22.478;2022-10-31T15:44:00;10.80;99.90
26743;DHT22;14341;51.256;22.478;2022-10-31T15:47:15;10.60;99.90
26743;DHT22;14341;51.256;22.478;2022-10-31T15:50:20;10.70;99.90
26743;DHT22;14341;51.256;22.478;2022-10-31T15:53:28;10.80;99.90
26743;DHT22;14341;51.256;22.478;2022-10-31T15:56:32;10.90;99.90
26743;DHT22;14341;51.256;22.478;2022-10-31T15:59:36;11.10;99.90
26743;DHT22;14341;51.256;22.478;2022-10-31T16:02:40;11.20;99.90
26743;DHT22;14341;51.256;22.478;2022-10-31T16:05:46;11.30;99.90
26743;DHT22;14341;51.256;22.478;2022-10-31T16:08:52;11.30;99.90
26743;DHT22;14341;51.256;22.478;2022-10-31T16:11:57;11.30;99.90
26743;DHT22;14341;51.256;22.478;2022-10-31T16:15:02;11.30;99.90
26743;DHT22;14341;51.256;22.478;2022-10-31T16:18:11;11.30;99.90
26743;DHT22;14341;51.256;22.478;2022-10-31T16:21:15;11.40;99.90
26743;DHT22;14341;51.256;22.478;2022-10-31T16:24:22;11.40;99.90
26743;DHT22;14341;51.256;22.478;2022-10-31T16:27:30;11.50;99.90
26743;DHT22;14341;51.256;22.478;2022-10-31T16:30:37;11.40;99.90
26743;DHT22;14341;51.256;22.478;2022-10-31T16:34:02;11.40;99.90
26743;DHT22;14341;51.256;22.478;2022-10-31T16:37:09;11.40;99.90
26743;DHT22;14341;51.256;22.478;2022-10-31T16:40:13;11.40;99.90
26743;DHT22;14341;51.256;22.478;2022-10-31T16:43:18;11.40;99.90
26743;DHT22;14341;51.256;22.478;2022-10-31T16:46:23;11.40;99.90
26743;DHT22;14341;51.256;22.478;2022-10-31T16:49:29;11.40;99.90
26743;DHT22;14341;51.256;22.478;2022-10-31T16:52:32;11.40;99.90
26743;DHT22;14341;51.256;22.478;2022-10-31T16:55:55;11.50;99.90
26743;DHT22;14341;51.256;22.478;2022-10-31T16:59:01;11.50;99.90
26743;DHT22;14341;51.256;22.478;2022-10-31T17:02:15;11.60;99.90
26743;DHT22;14341;51.256;22.478;2022-10-31T17:05:34;11.50;99.90
26743;DHT22;14341;51.256;22.478;2022-10-31T17:08:39;11.50;99.90
26743;DHT22;14341;51.256;22.478;2022-10-31T17:11:46;11.60;99.90
26743;DHT22;14341;51.256;22.478;2022-10-31T17:14:52;11.50;99.90
26743;DHT22;14341;51.256;22.478;2022-10-31T17:17:55;11.50;99.90
26743;DHT22;14341;51.256;22.478;2022-10-31T17:21:03;11.50;99.90
26743;DHT22;14341;51.256;22.478;2022-10-31T17:24:11;11.40;99.90
26743;DHT22;14341;51.256;22.478;2022-10-31T17:27:15;11.40;99.90
26743;DHT22;14341;51.256;22.478;2022-10-31T17:30:21;11.40;99.90
26743;DHT22;14341;51.256;22.478;2022-10-31T17:33:25;11.30;99.90
26743;DHT22;14341;51.256;22.478;2022-10-31T17:36:30;11.30;99.90
26743;DHT22;14341;51.256;22.478;2022-10-31T17:39:34;11.20;99.90
26743;DHT22;14341;51.256;22.478;2022-10-31T17:42:38;11.20;99.90
26743;DHT22;14341;51.256;22.478;2022-10-31T17:45:41;11.20;99.90
26743;DHT22;14341;51.256;22.478;2022-10-31T17:48:45;11.20;99.90
26743;DHT22;14341;51.256;22.478;2022-10-31T17:51:50;11.10;99.90
26743;DHT22;14341;51.256;22.478;2022-10-31T17:54:53;11.00;99.90
26743;DHT22;14341;51.256;22.478;2022-10-31T17:57:56;11.00;99.90
26743;DHT22;14341;51.256;22.478;2022-10-31T18:01:05;10.90;99.90
26743;DHT22;14341;51.256;22.478;2022-10-31T18:04:09;10.80;99.90
26743;DHT22;14341;51.256;22.478;2022-10-31T18:07:14;10.80;99.90
26743;DHT22;14341;51.256;22.478;2022-10-31T18:10:21;10.80;99.90
26743;DHT22;14341;51.256;22.478;2022-10-31T18:13:25;10.80;99.90
26743;DHT22;14341;51.256;22.478;2022-10-31T18:16:28;10.70;99.90
26743;DHT22;14341;51.256;22.478;2022-10-31T18:19:32;10.60;99.90
26743;DHT22;14341;51.256;22.478;2022-10-31T18:22:37;10.60;99.90
26743;DHT22;14341;51.256;22.478;2022-10-31T18:25:40;10.50;99.90
26743;DHT22;14341;51.256;22.478;2022-10-31T18:28:47;10.50;99.90
26743;DHT22;14341;51.256;22.478;2022-10-31T18:31:51;10.50;99.90
26743;DHT22;14341;51.256;22.478;2022-10-31T18:34:55;10.50;99.90
26743;DHT22;14341;51.256;22.478;2022-10-31T18:38:00;10.40;99.90
26743;DHT22;14341;51.256;22.478;2022-10-31T18:41:04;10.40;99.90
26743;DHT22;14341;51.256;22.478;2022-10-31T18:44:08;10.30;99.90
26743;DHT22;14341;51.256;22.478;2022-10-31T18:47:12;10.30;99.90
26743;DHT22;14341;51.256;22.478;2022-10-31T18:50:16;10.20;99.90
26743;DHT22;14341;51.256;22.478;2022-10-31T18:53:21;10.20;99.90
26743;DHT22;14341;51.256;22.478;2022-10-31T18:56:25;10.20;99.90
26743;DHT22;14341;51.256;22.478;2022-10-31T18:59:29;10.10;99.90
26743;DHT22;14341;51.256;22.478;2022-10-31T19:02:33;10.00;99.90
26743;DHT22;14341;51.256;22.478;2022-10-31T19:05:37;9.90;99.90
26743;DHT22;14341;51.256;22.478;2022-10-31T19:08:42;9.90;99.90
26743;DHT22;14341;51.256;22.478;2022-10-31T19:11:45;9.80;99.90
26743;DHT22;14341;51.256;22.478;2022-10-31T19:14:49;9.80;99.90
26743;DHT22;14341;51.256;22.478;2022-10-31T19:17:55;9.80;99.90
26743;DHT22;14341;51.256;22.478;2022-10-31T19:20:58;9.80;99.90
26743;DHT22;14341;51.256;22.478;2022-10-31T19:24:04;9.70;99.90
26743;DHT22;14341;51.256;22.478;2022-10-31T19:27:08;9.70;99.90
26743;DHT22;14341;51.256;22.478;2022-10-31T19:30:14;9.70;99.90
26743;DHT22;14341;51.256;22.478;2022-10-31T19:33:18;9.70;99.90
26743;DHT22;14341;51.256;22.478;2022-10-31T19:36:22;9.70;99.90
26743;DHT22;14341;51.256;22.478;2022-10-31T19:39:27;9.60;99.90
26743;DHT22;14341;51.256;22.478;2022-10-31T19:42:31;9.60;99.90
26743;DHT22;14341;51.256;22.478;2022-10-31T19:45:35;9.60;99.90
26743;DHT22;14341;51.256;22.478;2022-10-31T19:48:40;9.60;99.90
26743;DHT22;14341;51.256;22.478;2022-10-31T19:51:44;9.60;99.90